Liscombe, United Kingdom
Current Conditions -  °F | °C
As of 11:50 PM on Saturday 20 Dec 2014 (Local Time) from EGDX Reporting Station
Few Clouds Few Clouds  
Wind Chill: 40°   Ceiling: Unl
Heat Index: 46°   Visibility: 6mi
Dew Point: 45°   Wind: 14mph
Humidity: 93%   Direction: 270°W
Pressure: 30.45"   Gusts: NA
Location:  51.08°N, 3.6°W
Report Text: EGDX 202350Z AUTO 27012KT 9999 FEW010/// 08/07 Q1031
Loading
Personal Weather Stations






























Interactive Weather Map New forecast layout! Learn more

10-Day Weather Forecast

Advertisements
Track Severe Weather on mobile